sensor_id;sensor_type;location;lat;lon;timestamp;temperature;humidity
53146;DHT22;39042;53.150;5.898;2024-03-07T00:00:12;4.30;99.90
53146;DHT22;39042;53.150;5.898;2024-03-07T00:02:46;4.30;99.90
53146;DHT22;39042;53.150;5.898;2024-03-07T00:05:14;4.30;99.90
53146;DHT22;39042;53.150;5.898;2024-03-07T00:07:40;4.30;99.90
53146;DHT22;39042;53.150;5.898;2024-03-07T00:10:07;4.30;99.90
53146;DHT22;39042;53.150;5.898;2024-03-07T00:12:34;4.20;99.90
53146;DHT22;39042;53.150;5.898;2024-03-07T00:15:04;4.20;99.90
53146;DHT22;39042;53.150;5.898;2024-03-07T00:17:31;4.30;99.90
53146;DHT22;39042;53.150;5.898;2024-03-07T00:19:57;4.20;99.90
53146;DHT22;39042;53.150;5.898;2024-03-07T00:22:23;4.20;99.90
53146;DHT22;39042;53.150;5.898;2024-03-07T00:24:49;4.20;99.90
53146;DHT22;39042;53.150;5.898;2024-03-07T00:27:16;4.20;99.90
53146;DHT22;39042;53.150;5.898;2024-03-07T00:29:41;4.20;99.90
53146;DHT22;39042;53.150;5.898;2024-03-07T00:32:08;4.20;99.90
53146;DHT22;39042;53.150;5.898;2024-03-07T00:34:35;4.20;99.90
53146;DHT22;39042;53.150;5.898;2024-03-07T00:37:01;4.20;99.90
53146;DHT22;39042;53.150;5.898;2024-03-07T00:39:28;4.20;99.90
53146;DHT22;39042;53.150;5.898;2024-03-07T00:41:53;4.20;99.90
53146;DHT22;39042;53.150;5.898;2024-03-07T00:44:19;4.20;99.90
53146;DHT22;39042;53.150;5.898;2024-03-07T00:46:45;4.20;99.90
53146;DHT22;39042;53.150;5.898;2024-03-07T00:49:11;4.20;99.90
53146;DHT22;39042;53.150;5.898;2024-03-07T00:51:37;4.10;99.90
53146;DHT22;39042;53.150;5.898;2024-03-07T00:54:05;4.10;99.90
53146;DHT22;39042;53.150;5.898;2024-03-07T00:56:31;4.00;99.90
53146;DHT22;39042;53.150;5.898;2024-03-07T00:58:57;4.00;99.90
53146;DHT22;39042;53.150;5.898;2024-03-07T01:01:23;4.00;99.90
53146;DHT22;39042;53.150;5.898;2024-03-07T01:03:49;3.90;99.90
53146;DHT22;39042;53.150;5.898;2024-03-07T01:06:15;3.90;99.90
53146;DHT22;39042;53.150;5.898;2024-03-07T01:08:41;3.90;99.90
53146;DHT22;39042;53.150;5.898;2024-03-07T01:11:07;3.80;99.90
53146;DHT22;39042;53.150;5.898;2024-03-07T01:13:40;3.80;99.90
53146;DHT22;39042;53.150;5.898;2024-03-07T01:16:07;3.70;99.90
53146;DHT22;39042;53.150;5.898;2024-03-07T01:18:34;3.70;99.90
53146;DHT22;39042;53.150;5.898;2024-03-07T01:21:01;3.70;99.90
53146;DHT22;39042;53.150;5.898;2024-03-07T01:23:26;3.60;99.90
53146;DHT22;39042;53.150;5.898;2024-03-07T01:25:56;3.60;99.90
53146;DHT22;39042;53.150;5.898;2024-03-07T01:28:23;3.60;99.90
53146;DHT22;39042;53.150;5.898;2024-03-07T01:30:52;3.60;99.90
53146;DHT22;39042;53.150;5.898;2024-03-07T01:33:21;3.50;99.90
53146;DHT22;39042;53.150;5.898;2024-03-07T01:35:47;3.50;99.90
53146;DHT22;39042;53.150;5.898;2024-03-07T01:38:14;3.40;99.90
53146;DHT22;39042;53.150;5.898;2024-03-07T01:40:43;3.40;99.90
53146;DHT22;39042;53.150;5.898;2024-03-07T01:43:10;3.40;99.90
53146;DHT22;39042;53.150;5.898;2024-03-07T01:45:39;3.40;99.90
53146;DHT22;39042;53.150;5.898;2024-03-07T01:48:05;3.40;99.90
53146;DHT22;39042;53.150;5.898;2024-03-07T01:50:33;3.30;99.90
53146;DHT22;39042;53.150;5.898;2024-03-07T01:52:59;3.30;99.90
53146;DHT22;39042;53.150;5.898;2024-03-07T01:55:27;3.30;99.90
53146;DHT22;39042;53.150;5.898;2024-03-07T01:57:56;3.20;99.90
53146;DHT22;39042;53.150;5.898;2024-03-07T02:00:24;3.20;99.90
53146;DHT22;39042;53.150;5.898;2024-03-07T02:02:50;3.20;99.90
53146;DHT22;39042;53.150;5.898;2024-03-07T02:05:16;3.20;99.90
53146;DHT22;39042;53.150;5.898;2024-03-07T02:07:43;3.20;99.90
53146;DHT22;39042;53.150;5.898;2024-03-07T02:10:09;3.20;99.90
53146;DHT22;39042;53.150;5.898;2024-03-07T02:12:36;3.20;99.90
53146;DHT22;39042;53.150;5.898;2024-03-07T02:15:02;3.20;99.90
53146;DHT22;39042;53.150;5.898;2024-03-07T02:17:29;3.20;99.90
53146;DHT22;39042;53.150;5.898;2024-03-07T02:19:55;3.20;99.90
53146;DHT22;39042;53.150;5.898;2024-03-07T02:22:21;3.20;99.90
53146;DHT22;39042;53.150;5.898;2024-03-07T02:24:47;3.20;99.90
53146;DHT22;39042;53.150;5.898;2024-03-07T02:27:13;3.20;99.90
53146;DHT22;39042;53.150;5.898;2024-03-07T02:29:42;3.20;99.90
53146;DHT22;39042;53.150;5.898;2024-03-07T02:32:08;3.10;99.90
53146;DHT22;39042;53.150;5.898;2024-03-07T02:34:35;3.10;99.90
53146;DHT22;39042;53.150;5.898;2024-03-07T02:37:01;3.10;99.90
53146;DHT22;39042;53.150;5.898;2024-03-07T02:39:28;3.00;99.90
53146;DHT22;39042;53.150;5.898;2024-03-07T02:41:54;3.00;99.90
53146;DHT22;39042;53.150;5.898;2024-03-07T02:44:19;3.00;99.90
53146;DHT22;39042;53.150;5.898;2024-03-07T02:46:45;2.90;99.90
53146;DHT22;39042;53.150;5.898;2024-03-07T02:49:13;2.90;99.90
53146;DHT22;39042;53.150;5.898;2024-03-07T02:51:38;2.80;99.90
53146;DHT22;39042;53.150;5.898;2024-03-07T02:54:04;2.80;99.90
53146;DHT22;39042;53.150;5.898;2024-03-07T02:56:31;2.80;99.90
53146;DHT22;39042;53.150;5.898;2024-03-07T02:58:57;2.80;99.90
53146;DHT22;39042;53.150;5.898;2024-03-07T03:01:23;2.70;99.90
53146;DHT22;39042;53.150;5.898;2024-03-07T03:03:49;2.70;99.90
53146;DHT22;39042;53.150;5.898;2024-03-07T03:06:14;2.70;99.90
53146;DHT22;39042;53.150;5.898;2024-03-07T03:08:40;2.70;99.90
53146;DHT22;39042;53.150;5.898;2024-03-07T03:11:06;2.70;99.90
53146;DHT22;39042;53.150;5.898;2024-03-07T03:13:37;2.60;99.90
53146;DHT22;39042;53.150;5.898;2024-03-07T03:16:04;2.60;99.90
53146;DHT22;39042;53.150;5.898;2024-03-07T03:18:33;2.60;99.90
53146;DHT22;39042;53.150;5.898;2024-03-07T03:21:02;2.60;99.90
53146;DHT22;39042;53.150;5.898;2024-03-07T03:23:29;2.60;99.90
53146;DHT22;39042;53.150;5.898;2024-03-07T03:25:55;2.60;99.90
53146;DHT22;39042;53.150;5.898;2024-03-07T03:28:21;2.60;99.90
53146;DHT22;39042;53.150;5.898;2024-03-07T03:30:47;2.50;99.90
53146;DHT22;39042;53.150;5.898;2024-03-07T03:33:13;2.60;99.90
53146;DHT22;39042;53.150;5.898;2024-03-07T03:35:40;2.50;99.90
53146;DHT22;39042;53.150;5.898;2024-03-07T03:38:07;2.50;99.90
53146;DHT22;39042;53.150;5.898;2024-03-07T03:40:33;2.50;99.90
53146;DHT22;39042;53.150;5.898;2024-03-07T03:43:00;2.50;99.90
53146;DHT22;39042;53.150;5.898;2024-03-07T03:45:26;2.50;99.90
53146;DHT22;39042;53.150;5.898;2024-03-07T03:47:52;2.50;99.90
53146;DHT22;39042;53.150;5.898;2024-03-07T03:50:19;2.50;99.90
53146;DHT22;39042;53.150;5.898;2024-03-07T03:52:44;2.50;99.90
53146;DHT22;39042;53.150;5.898;2024-03-07T03:55:11;2.40;99.90
53146;DHT22;39042;53.150;5.898;2024-03-07T03:57:39;2.40;99.90
53146;DHT22;39042;53.150;5.898;2024-03-07T04:00:06;2.40;99.90
53146;DHT22;39042;53.150;5.898;2024-03-07T04:02:39;2.50;99.90
53146;DHT22;39042;53.150;5.898;2024-03-07T04:05:05;2.40;99.90
53146;DHT22;39042;53.150;5.898;2024-03-07T04:07:31;2.40;99.90
53146;DHT22;39042;53.150;5.898;2024-03-07T04:09:57;2.40;99.90
53146;DHT22;39042;53.150;5.898;2024-03-07T04:12:29;2.40;99.90
53146;DHT22;39042;53.150;5.898;2024-03-07T04:14:54;2.40;99.90
53146;DHT22;39042;53.150;5.898;2024-03-07T04:17:21;2.40;99.90
53146;DHT22;39042;53.150;5.898;2024-03-07T04:19:47;2.40;99.90
53146;DHT22;39042;53.150;5.898;2024-03-07T04:22:13;2.30;99.90
53146;DHT22;39042;53.150;5.898;2024-03-07T04:24:39;2.30;99.90
53146;DHT22;39042;53.150;5.898;2024-03-07T04:27:06;2.30;99.90
53146;DHT22;39042;53.150;5.898;2024-03-07T04:29:35;2.20;99.90
53146;DHT22;39042;53.150;5.898;2024-03-07T04:32:02;2.20;99.90
53146;DHT22;39042;53.150;5.898;2024-03-07T04:34:29;2.20;99.90
53146;DHT22;39042;53.150;5.898;2024-03-07T04:36:59;2.20;99.90
53146;DHT22;39042;53.150;5.898;2024-03-07T04:39:28;2.20;99.90
53146;DHT22;39042;53.150;5.898;2024-03-07T04:42:04;2.10;99.90
53146;DHT22;39042;53.150;5.898;2024-03-07T04:44:32;2.10;99.90
53146;DHT22;39042;53.150;5.898;2024-03-07T04:46:59;2.10;99.90
53146;DHT22;39042;53.150;5.898;2024-03-07T04:49:30;2.10;99.90
53146;DHT22;39042;53.150;5.898;2024-03-07T04:51:58;2.10;99.90
53146;DHT22;39042;53.150;5.898;2024-03-07T04:54:25;2.00;99.90
53146;DHT22;39042;53.150;5.898;2024-03-07T04:56:52;2.00;99.90
53146;DHT22;39042;53.150;5.898;2024-03-07T04:59:19;2.00;99.90
53146;DHT22;39042;53.150;5.898;2024-03-07T05:01:46;2.00;99.90
53146;DHT22;39042;53.150;5.898;2024-03-07T05:04:14;2.00;99.90
53146;DHT22;39042;53.150;5.898;2024-03-07T05:06:40;1.90;99.90
53146;DHT22;39042;53.150;5.898;2024-03-07T05:09:08;1.90;99.90
53146;DHT22;39042;53.150;5.898;2024-03-07T05:11:51;1.90;99.90
53146;DHT22;39042;53.150;5.898;2024-03-07T05:14:17;1.80;99.90
53146;DHT22;39042;53.150;5.898;2024-03-07T05:16:43;1.80;99.90
53146;DHT22;39042;53.150;5.898;2024-03-07T05:19:09;1.80;99.90
53146;DHT22;39042;53.150;5.898;2024-03-07T05:21:35;1.80;99.90
53146;DHT22;39042;53.150;5.898;2024-03-07T05:24:07;1.80;99.90
53146;DHT22;39042;53.150;5.898;2024-03-07T05:26:37;1.80;99.90
53146;DHT22;39042;53.150;5.898;2024-03-07T05:29:05;1.80;99.90
53146;DHT22;39042;53.150;5.898;2024-03-07T05:31:34;1.80;99.90
53146;DHT22;39042;53.150;5.898;2024-03-07T05:34:03;1.80;99.90
53146;DHT22;39042;53.150;5.898;2024-03-07T05:36:31;1.70;99.90
53146;DHT22;39042;53.150;5.898;2024-03-07T05:38:57;1.70;99.90
53146;DHT22;39042;53.150;5.898;2024-03-07T05:41:23;1.70;99.90
53146;DHT22;39042;53.150;5.898;2024-03-07T05:43:49;1.70;99.90
53146;DHT22;39042;53.150;5.898;2024-03-07T05:46:17;1.70;99.90
53146;DHT22;39042;53.150;5.898;2024-03-07T05:48:43;1.70;99.90
53146;DHT22;39042;53.150;5.898;2024-03-07T05:51:11;1.70;99.90
53146;DHT22;39042;53.150;5.898;2024-03-07T05:53:37;1.60;99.90
53146;DHT22;39042;53.150;5.898;2024-03-07T05:56:03;1.60;99.90
53146;DHT22;39042;53.150;5.898;2024-03-07T05:58:29;1.60;99.90
53146;DHT22;39042;53.150;5.898;2024-03-07T06:00:55;1.60;99.90
53146;DHT22;39042;53.150;5.898;2024-03-07T06:03:22;1.60;99.90
53146;DHT22;39042;53.150;5.898;2024-03-07T06:05:50;1.60;99.90
53146;DHT22;39042;53.150;5.898;2024-03-07T06:08:20;1.50;99.90
53146;DHT22;39042;53.150;5.898;2024-03-07T06:10:47;1.60;99.90
53146;DHT22;39042;53.150;5.898;2024-03-07T06:13:14;1.60;99.90
53146;DHT22;39042;53.150;5.898;2024-03-07T06:15:44;1.60;99.90
53146;DHT22;39042;53.150;5.898;2024-03-07T06:18:10;1.60;99.90
53146;DHT22;39042;53.150;5.898;2024-03-07T06:20:43;1.60;99.90
53146;DHT22;39042;53.150;5.898;2024-03-07T06:23:09;1.60;99.90
53146;DHT22;39042;53.150;5.898;2024-03-07T06:25:37;1.60;99.90
53146;DHT22;39042;53.150;5.898;2024-03-07T06:28:13;1.60;99.90
53146;DHT22;39042;53.150;5.898;2024-03-07T06:30:41;1.70;99.90
53146;DHT22;39042;53.150;5.898;2024-03-07T06:33:09;1.70;99.90
53146;DHT22;39042;53.150;5.898;2024-03-07T06:35:38;1.70;99.90
53146;DHT22;39042;53.150;5.898;2024-03-07T06:38:06;1.70;99.90
53146;DHT22;39042;53.150;5.898;2024-03-07T06:40:39;1.70;99.90
53146;DHT22;39042;53.150;5.898;2024-03-07T06:43:11;1.80;99.90
53146;DHT22;39042;53.150;5.898;2024-03-07T06:45:37;1.80;99.90
53146;DHT22;39042;53.150;5.898;2024-03-07T06:48:05;1.80;99.90
53146;DHT22;39042;53.150;5.898;2024-03-07T06:50:38;1.90;99.90
53146;DHT22;39042;53.150;5.898;2024-03-07T06:53:04;1.90;99.90
53146;DHT22;39042;53.150;5.898;2024-03-07T06:55:32;1.90;99.90
53146;DHT22;39042;53.150;5.898;2024-03-07T06:58:02;2.00;99.90
53146;DHT22;39042;53.150;5.898;2024-03-07T07:00:31;2.00;99.90
53146;DHT22;39042;53.150;5.898;2024-03-07T07:03:05;2.10;99.90
53146;DHT22;39042;53.150;5.898;2024-03-07T07:05:31;2.10;99.90
53146;DHT22;39042;53.150;5.898;2024-03-07T07:07:59;2.10;99.90
53146;DHT22;39042;53.150;5.898;2024-03-07T07:10:25;2.10;99.90
53146;DHT22;39042;53.150;5.898;2024-03-07T07:12:51;2.30;99.90
53146;DHT22;39042;53.150;5.898;2024-03-07T07:15:20;2.30;99.90
53146;DHT22;39042;53.150;5.898;2024-03-07T07:17:47;2.40;99.90
53146;DHT22;39042;53.150;5.898;2024-03-07T07:20:18;2.50;99.90
53146;DHT22;39042;53.150;5.898;2024-03-07T07:22:47;2.50;99.90
53146;DHT22;39042;53.150;5.898;2024-03-07T07:25:13;2.60;99.90
53146;DHT22;39042;53.150;5.898;2024-03-07T07:27:44;2.60;99.90
53146;DHT22;39042;53.150;5.898;2024-03-07T07:30:11;2.60;99.90
53146;DHT22;39042;53.150;5.898;2024-03-07T07:32:38;2.60;99.90
53146;DHT22;39042;53.150;5.898;2024-03-07T07:35:05;2.70;99.90
53146;DHT22;39042;53.150;5.898;2024-03-07T07:37:41;2.70;99.90
53146;DHT22;39042;53.150;5.898;2024-03-07T07:40:12;2.80;99.90
53146;DHT22;39042;53.150;5.898;2024-03-07T07:42:44;2.80;99.90
53146;DHT22;39042;53.150;5.898;2024-03-07T07:45:10;2.80;99.90
53146;DHT22;39042;53.150;5.898;2024-03-07T07:47:41;2.90;99.90
53146;DHT22;39042;53.150;5.898;2024-03-07T07:52:48;3.00;99.90
53146;DHT22;39042;53.150;5.898;2024-03-07T07:55:20;3.00;99.90
53146;DHT22;39042;53.150;5.898;2024-03-07T07:58:06;3.00;99.90
53146;DHT22;39042;53.150;5.898;2024-03-07T08:00:33;3.10;99.90
53146;DHT22;39042;53.150;5.898;2024-03-07T08:03:06;3.10;99.90
53146;DHT22;39042;53.150;5.898;2024-03-07T08:05:37;3.20;99.90
53146;DHT22;39042;53.150;5.898;2024-03-07T08:08:07;3.20;99.90
53146;DHT22;39042;53.150;5.898;2024-03-07T08:10:36;3.20;99.90
53146;DHT22;39042;53.150;5.898;2024-03-07T08:13:03;3.20;99.90
53146;DHT22;39042;53.150;5.898;2024-03-07T08:15:30;3.10;99.90
53146;DHT22;39042;53.150;5.898;2024-03-07T08:17:57;3.10;99.90
53146;DHT22;39042;53.150;5.898;2024-03-07T08:20:25;3.00;99.90
53146;DHT22;39042;53.150;5.898;2024-03-07T08:22:54;3.00;99.90
53146;DHT22;39042;53.150;5.898;2024-03-07T08:25:25;3.00;99.90
53146;DHT22;39042;53.150;5.898;2024-03-07T08:27:53;3.10;99.90
53146;DHT22;39042;53.150;5.898;2024-03-07T08:30:20;3.20;99.90
53146;DHT22;39042;53.150;5.898;2024-03-07T08:32:48;3.20;99.90
53146;DHT22;39042;53.150;5.898;2024-03-07T08:35:14;3.20;99.90
53146;DHT22;39042;53.150;5.898;2024-03-07T08:37:43;3.10;99.90
53146;DHT22;39042;53.150;5.898;2024-03-07T08:40:15;3.00;99.90
53146;DHT22;39042;53.150;5.898;2024-03-07T08:42:48;3.00;99.90
53146;DHT22;39042;53.150;5.898;2024-03-07T08:45:14;2.90;99.90
53146;DHT22;39042;53.150;5.898;2024-03-07T08:47:46;2.80;99.90
53146;DHT22;39042;53.150;5.898;2024-03-07T08:50:13;2.80;99.90
53146;DHT22;39042;53.150;5.898;2024-03-07T08:52:40;2.80;99.90
53146;DHT22;39042;53.150;5.898;2024-03-07T08:55:07;2.80;99.90
53146;DHT22;39042;53.150;5.898;2024-03-07T08:57:37;2.80;99.90
53146;DHT22;39042;53.150;5.898;2024-03-07T09:00:05;2.80;99.90
53146;DHT22;39042;53.150;5.898;2024-03-07T09:02:38;2.80;99.90
53146;DHT22;39042;53.150;5.898;2024-03-07T09:05:05;2.80;99.90
53146;DHT22;39042;53.150;5.898;2024-03-07T09:07:32;2.80;99.90
53146;DHT22;39042;53.150;5.898;2024-03-07T09:09:58;2.80;99.90
53146;DHT22;39042;53.150;5.898;2024-03-07T09:12:24;2.90;99.90
53146;DHT22;39042;53.150;5.898;2024-03-07T09:14:53;2.90;99.90
53146;DHT22;39042;53.150;5.898;2024-03-07T09:17:20;3.00;99.90
53146;DHT22;39042;53.150;5.898;2024-03-07T09:19:45;3.10;99.90
53146;DHT22;39042;53.150;5.898;2024-03-07T09:22:11;3.20;99.90
53146;DHT22;39042;53.150;5.898;2024-03-07T09:24:37;3.30;99.90
53146;DHT22;39042;53.150;5.898;2024-03-07T09:27:03;3.40;99.90
53146;DHT22;39042;53.150;5.898;2024-03-07T09:29:30;3.50;99.90
53146;DHT22;39042;53.150;5.898;2024-03-07T09:31:56;3.60;99.90
53146;DHT22;39042;53.150;5.898;2024-03-07T09:34:23;3.50;99.90
53146;DHT22;39042;53.150;5.898;2024-03-07T09:36:50;3.50;99.90
53146;DHT22;39042;53.150;5.898;2024-03-07T09:39:17;3.50;99.90
53146;DHT22;39042;53.150;5.898;2024-03-07T09:41:43;3.50;99.90
53146;DHT22;39042;53.150;5.898;2024-03-07T09:44:09;3.50;99.90
53146;DHT22;39042;53.150;5.898;2024-03-07T09:46:38;3.60;99.90
53146;DHT22;39042;53.150;5.898;2024-03-07T09:49:05;3.60;99.90
53146;DHT22;39042;53.150;5.898;2024-03-07T09:51:35;3.70;99.90
53146;DHT22;39042;53.150;5.898;2024-03-07T09:54:01;3.70;99.90
53146;DHT22;39042;53.150;5.898;2024-03-07T09:56:28;3.80;99.90
53146;DHT22;39042;53.150;5.898;2024-03-07T09:58:58;3.70;99.90
53146;DHT22;39042;53.150;5.898;2024-03-07T10:01:27;3.70;99.90
53146;DHT22;39042;53.150;5.898;2024-03-07T10:03:58;3.70;99.90
53146;DHT22;39042;53.150;5.898;2024-03-07T10:06:27;3.70;99.90
53146;DHT22;39042;53.150;5.898;2024-03-07T10:08:55;3.70;99.90
53146;DHT22;39042;53.150;5.898;2024-03-07T10:11:21;3.80;99.90
53146;DHT22;39042;53.150;5.898;2024-03-07T10:13:48;3.80;99.90
53146;DHT22;39042;53.150;5.898;2024-03-07T10:16:18;3.90;99.90
53146;DHT22;39042;53.150;5.898;2024-03-07T10:18:44;3.80;99.90
53146;DHT22;39042;53.150;5.898;2024-03-07T10:21:13;3.80;99.90
53146;DHT22;39042;53.150;5.898;2024-03-07T10:23:39;3.80;99.90
53146;DHT22;39042;53.150;5.898;2024-03-07T10:26:06;3.80;99.90
53146;DHT22;39042;53.150;5.898;2024-03-07T10:28:32;3.80;99.90
53146;DHT22;39042;53.150;5.898;2024-03-07T10:30:59;3.80;99.90
53146;DHT22;39042;53.150;5.898;2024-03-07T10:33:29;3.70;99.90
53146;DHT22;39042;53.150;5.898;2024-03-07T10:36:00;3.80;99.90
53146;DHT22;39042;53.150;5.898;2024-03-07T10:38:27;3.80;99.90
53146;DHT22;39042;53.150;5.898;2024-03-07T10:40:55;3.90;99.90
53146;DHT22;39042;53.150;5.898;2024-03-07T10:43:22;3.90;99.90
53146;DHT22;39042;53.150;5.898;2024-03-07T10:45:49;3.90;99.90
53146;DHT22;39042;53.150;5.898;2024-03-07T10:48:19;3.90;99.90
53146;DHT22;39042;53.150;5.898;2024-03-07T10:50:59;4.00;99.90
53146;DHT22;39042;53.150;5.898;2024-03-07T10:53:56;4.00;99.90
53146;DHT22;39042;53.150;5.898;2024-03-07T10:59:25;3.90;99.90
53146;DHT22;39042;53.150;5.898;2024-03-07T11:02:46;3.90;99.90
53146;DHT22;39042;53.150;5.898;2024-03-07T11:05:04;4.00;99.90
53146;DHT22;39042;53.150;5.898;2024-03-07T11:07:34;4.00;99.90
53146;DHT22;39042;53.150;5.898;2024-03-07T11:10:01;4.10;99.90
53146;DHT22;39042;53.150;5.898;2024-03-07T11:12:29;4.10;99.90
53146;DHT22;39042;53.150;5.898;2024-03-07T11:14:56;4.00;99.90
53146;DHT22;39042;53.150;5.898;2024-03-07T11:17:23;4.10;99.90
53146;DHT22;39042;53.150;5.898;2024-03-07T11:19:49;4.10;99.90
53146;DHT22;39042;53.150;5.898;2024-03-07T11:22:31;4.20;99.90
53146;DHT22;39042;53.150;5.898;2024-03-07T11:25:05;4.30;99.90
53146;DHT22;39042;53.150;5.898;2024-03-07T11:27:37;4.30;99.90
53146;DHT22;39042;53.150;5.898;2024-03-07T11:30:09;4.30;99.90
53146;DHT22;39042;53.150;5.898;2024-03-07T11:32:37;4.30;99.90
53146;DHT22;39042;53.150;5.898;2024-03-07T11:35:13;4.40;99.90
53146;DHT22;39042;53.150;5.898;2024-03-07T11:37:48;4.60;99.90
53146;DHT22;39042;53.150;5.898;2024-03-07T11:42:53;4.60;99.90
53146;DHT22;39042;53.150;5.898;2024-03-07T11:45:20;4.60;99.90
53146;DHT22;39042;53.150;5.898;2024-03-07T11:47:57;4.70;99.90
53146;DHT22;39042;53.150;5.898;2024-03-07T11:50:26;4.70;99.90
53146;DHT22;39042;53.150;5.898;2024-03-07T11:52:56;4.70;99.90
53146;DHT22;39042;53.150;5.898;2024-03-07T11:55:22;4.70;99.90
53146;DHT22;39042;53.150;5.898;2024-03-07T11:57:49;4.70;99.90
53146;DHT22;39042;53.150;5.898;2024-03-07T12:00:19;4.80;99.90
53146;DHT22;39042;53.150;5.898;2024-03-07T12:02:45;4.70;99.90
53146;DHT22;39042;53.150;5.898;2024-03-07T12:05:14;4.80;99.90
53146;DHT22;39042;53.150;5.898;2024-03-07T12:07:45;4.80;99.90
53146;DHT22;39042;53.150;5.898;2024-03-07T12:10:11;4.90;99.90
53146;DHT22;39042;53.150;5.898;2024-03-07T12:12:37;5.00;99.90
53146;DHT22;39042;53.150;5.898;2024-03-07T12:15:08;5.10;99.90
53146;DHT22;39042;53.150;5.898;2024-03-07T12:17:47;5.00;99.90
53146;DHT22;39042;53.150;5.898;2024-03-07T12:20:16;5.00;99.90
53146;DHT22;39042;53.150;5.898;2024-03-07T12:23:03;5.00;99.90
53146;DHT22;39042;53.150;5.898;2024-03-07T12:25:29;5.10;99.90
53146;DHT22;39042;53.150;5.898;2024-03-07T12:28:11;5.20;99.90
53146;DHT22;39042;53.150;5.898;2024-03-07T12:30:58;5.30;99.90
53146;DHT22;39042;53.150;5.898;2024-03-07T12:33:29;5.30;99.90
53146;DHT22;39042;53.150;5.898;2024-03-07T12:35:55;5.30;99.90
53146;DHT22;39042;53.150;5.898;2024-03-07T12:38:31;5.30;99.90
53146;DHT22;39042;53.150;5.898;2024-03-07T12:41:06;5.40;99.90
53146;DHT22;39042;53.150;5.898;2024-03-07T12:43:42;5.40;99.90
53146;DHT22;39042;53.150;5.898;2024-03-07T12:46:10;5.50;99.90
53146;DHT22;39042;53.150;5.898;2024-03-07T12:48:40;5.40;99.90
53146;DHT22;39042;53.150;5.898;2024-03-07T12:51:07;5.40;99.90
53146;DHT22;39042;53.150;5.898;2024-03-07T12:53:33;5.40;99.90
53146;DHT22;39042;53.150;5.898;2024-03-07T12:56:00;5.40;99.90
53146;DHT22;39042;53.150;5.898;2024-03-07T12:58:26;5.30;99.90
53146;DHT22;39042;53.150;5.898;2024-03-07T13:00:58;5.30;99.90
53146;DHT22;39042;53.150;5.898;2024-03-07T13:03:24;5.40;99.90
53146;DHT22;39042;53.150;5.898;2024-03-07T13:05:59;5.50;99.90
53146;DHT22;39042;53.150;5.898;2024-03-07T13:08:27;5.60;99.90
53146;DHT22;39042;53.150;5.898;2024-03-07T13:10:55;5.60;99.90
53146;DHT22;39042;53.150;5.898;2024-03-07T13:13:21;5.70;99.90
53146;DHT22;39042;53.150;5.898;2024-03-07T13:15:47;5.70;99.90
53146;DHT22;39042;53.150;5.898;2024-03-07T13:18:13;5.70;99.90
53146;DHT22;39042;53.150;5.898;2024-03-07T13:20:39;5.80;99.90
53146;DHT22;39042;53.150;5.898;2024-03-07T13:23:05;5.90;99.90
53146;DHT22;39042;53.150;5.898;2024-03-07T13:25:31;5.90;99.90
53146;DHT22;39042;53.150;5.898;2024-03-07T13:28:05;5.90;99.90
53146;DHT22;39042;53.150;5.898;2024-03-07T13:30:35;5.90;99.90
53146;DHT22;39042;53.150;5.898;2024-03-07T13:33:04;6.00;99.90
53146;DHT22;39042;53.150;5.898;2024-03-07T13:35:30;6.10;99.90
53146;DHT22;39042;53.150;5.898;2024-03-07T13:37:56;6.20;99.90
53146;DHT22;39042;53.150;5.898;2024-03-07T13:40:26;6.20;99.90
53146;DHT22;39042;53.150;5.898;2024-03-07T13:42:55;6.30;99.90
53146;DHT22;39042;53.150;5.898;2024-03-07T13:45:23;6.30;99.90
53146;DHT22;39042;53.150;5.898;2024-03-07T13:47:49;6.40;99.90
53146;DHT22;39042;53.150;5.898;2024-03-07T13:50:19;6.40;99.90
53146;DHT22;39042;53.150;5.898;2024-03-07T13:52:48;6.40;99.90
53146;DHT22;39042;53.150;5.898;2024-03-07T13:58:23;6.50;99.90
53146;DHT22;39042;53.150;5.898;2024-03-07T14:00:55;6.60;99.90
53146;DHT22;39042;53.150;5.898;2024-03-07T14:32:01;6.60;99.90
53146;DHT22;39042;53.150;5.898;2024-03-07T14:36:57;6.60;99.90
53146;DHT22;39042;53.150;5.898;2024-03-07T14:39:28;6.50;99.90
53146;DHT22;39042;53.150;5.898;2024-03-07T14:42:05;6.50;99.90
53146;DHT22;39042;53.150;5.898;2024-03-07T14:44:38;6.50;99.90
53146;DHT22;39042;53.150;5.898;2024-03-07T14:47:08;6.50;99.90
53146;DHT22;39042;53.150;5.898;2024-03-07T14:49:38;6.60;99.90
53146;DHT22;39042;53.150;5.898;2024-03-07T14:52:05;6.50;99.90
53146;DHT22;39042;53.150;5.898;2024-03-07T14:54:39;6.50;99.90
53146;DHT22;39042;53.150;5.898;2024-03-07T14:57:07;6.50;99.90
53146;DHT22;39042;53.150;5.898;2024-03-07T14:59:36;6.50;99.90
53146;DHT22;39042;53.150;5.898;2024-03-07T15:02:02;6.50;99.90
53146;DHT22;39042;53.150;5.898;2024-03-07T15:04:31;6.50;99.90
53146;DHT22;39042;53.150;5.898;2024-03-07T15:06:58;6.40;99.90
53146;DHT22;39042;53.150;5.898;2024-03-07T15:09:24;6.40;99.90
53146;DHT22;39042;53.150;5.898;2024-03-07T15:11:51;6.40;99.90
53146;DHT22;39042;53.150;5.898;2024-03-07T15:14:16;6.40;99.90
53146;DHT22;39042;53.150;5.898;2024-03-07T15:16:42;6.40;99.90
53146;DHT22;39042;53.150;5.898;2024-03-07T15:19:09;6.40;99.90
53146;DHT22;39042;53.150;5.898;2024-03-07T15:21:38;6.40;99.90
53146;DHT22;39042;53.150;5.898;2024-03-07T15:24:04;6.40;99.90
53146;DHT22;39042;53.150;5.898;2024-03-07T15:26:30;6.40;99.90
53146;DHT22;39042;53.150;5.898;2024-03-07T15:28:57;6.40;99.90
53146;DHT22;39042;53.150;5.898;2024-03-07T15:31:25;6.40;99.90
53146;DHT22;39042;53.150;5.898;2024-03-07T15:33:51;6.40;99.90
53146;DHT22;39042;53.150;5.898;2024-03-07T15:36:17;6.40;99.90
53146;DHT22;39042;53.150;5.898;2024-03-07T15:38:44;6.40;99.90
53146;DHT22;39042;53.150;5.898;2024-03-07T15:41:11;6.30;99.90
53146;DHT22;39042;53.150;5.898;2024-03-07T15:43:41;6.30;99.90
53146;DHT22;39042;53.150;5.898;2024-03-07T15:46:09;6.30;99.90
53146;DHT22;39042;53.150;5.898;2024-03-07T15:48:37;6.30;99.90
53146;DHT22;39042;53.150;5.898;2024-03-07T15:51:04;6.40;99.90
53146;DHT22;39042;53.150;5.898;2024-03-07T15:53:31;6.40;99.90
53146;DHT22;39042;53.150;5.898;2024-03-07T15:56:00;6.40;99.90
53146;DHT22;39042;53.150;5.898;2024-03-07T15:58:26;6.40;99.90
53146;DHT22;39042;53.150;5.898;2024-03-07T16:00:52;6.40;99.90
53146;DHT22;39042;53.150;5.898;2024-03-07T16:03:18;6.40;99.90
53146;DHT22;39042;53.150;5.898;2024-03-07T16:05:45;6.40;99.90
53146;DHT22;39042;53.150;5.898;2024-03-07T16:08:14;6.40;99.90
53146;DHT22;39042;53.150;5.898;2024-03-07T16:10:40;6.40;99.90
53146;DHT22;39042;53.150;5.898;2024-03-07T16:13:11;6.40;99.90
53146;DHT22;39042;53.150;5.898;2024-03-07T16:15:41;6.40;99.90
53146;DHT22;39042;53.150;5.898;2024-03-07T16:18:07;6.40;99.90
53146;DHT22;39042;53.150;5.898;2024-03-07T16:20:34;6.40;99.90
53146;DHT22;39042;53.150;5.898;2024-03-07T16:23:00;6.40;99.90
53146;DHT22;39042;53.150;5.898;2024-03-07T16:25:30;6.40;99.90
53146;DHT22;39042;53.150;5.898;2024-03-07T16:27:56;6.40;99.90
53146;DHT22;39042;53.150;5.898;2024-03-07T16:30:25;6.40;99.90
53146;DHT22;39042;53.150;5.898;2024-03-07T16:32:53;6.40;99.90